createdAt,value
2022-08-07T00:00:40.104Z,100559.47
2022-08-07T00:03:09.513Z,100557.00
2022-08-07T00:05:37.941Z,100558.03
2022-08-07T00:08:07.822Z,100562.06
2022-08-07T00:10:48.307Z,100563.53
2022-08-07T00:13:26.737Z,100558.22
2022-08-07T00:15:55.596Z,100553.91
2022-08-07T00:18:27.743Z,100560.75
2022-08-07T00:21:01.911Z,100564.31
2022-08-07T00:23:32.787Z,100560.78
2022-08-07T00:26:13.064Z,100564.28
2022-08-07T00:28:56.673Z,100563.03
2022-08-07T00:31:38.463Z,100566.44
2022-08-07T00:34:10.043Z,100565.34
2022-08-07T00:36:43.291Z,100563.34
2022-08-07T00:39:12.882Z,100572.50
2022-08-07T00:42:02.236Z,100583.38
2022-08-07T00:44:34.756Z,100577.50
2022-08-07T00:47:06.561Z,100578.59
2022-08-07T00:50:19.571Z,100579.28
2022-08-07T00:52:33.248Z,100577.72
2022-08-07T00:55:10.422Z,100578.06
2022-08-07T00:57:44.514Z,100589.09
2022-08-07T01:00:23.945Z,100576.41
2022-08-07T01:02:52.296Z,100578.59
2022-08-07T01:05:24.524Z,100573.19
2022-08-07T01:07:53.188Z,100566.91
2022-08-07T01:10:23.176Z,100573.28
2022-08-07T01:12:54.683Z,100570.09
2022-08-07T01:15:36.052Z,100569.53
2022-08-07T01:18:17.108Z,100572.50
2022-08-07T01:20:59.203Z,100576.50
2022-08-07T01:23:36.402Z,100573.53
2022-08-07T01:26:11.828Z,100585.16
2022-08-07T01:28:49.126Z,100588.34
2022-08-07T01:31:19.355Z,100584.03
2022-08-07T01:33:55.076Z,100592.78
2022-08-07T01:36:33.654Z,100593.00
2022-08-07T01:39:04.096Z,100585.47
2022-08-07T01:41:40.926Z,100600.97
2022-08-07T01:44:28.928Z,100595.19
2022-08-07T01:46:58.541Z,100608.94
2022-08-07T01:49:29.481Z,100604.94
2022-08-07T01:52:04.926Z,100607.16
2022-08-07T01:54:37.603Z,100602.41
2022-08-07T01:57:20.693Z,100606.06
2022-08-07T02:00:13.185Z,100604.06
2022-08-07T02:03:18.803Z,100603.50
2022-08-07T02:05:59.864Z,100607.59
2022-08-07T02:08:33.910Z,100611.81
2022-08-07T02:11:04.785Z,100612.56
2022-08-07T02:13:56.813Z,100601.19
2022-08-07T02:16:28.656Z,100607.47
2022-08-07T02:20:07.445Z,100615.09
2022-08-07T02:21:58.579Z,100622.97
2022-08-07T02:24:29.386Z,100628.34
2022-08-07T02:27:02.624Z,100623.72
2022-08-07T02:29:34.458Z,100624.88
2022-08-07T02:32:14.915Z,100637.53
2022-08-07T02:34:48.998Z,100641.38
2022-08-07T02:37:20.933Z,100647.00
2022-08-07T02:40:02.291Z,100641.00
2022-08-07T02:42:39.695Z,100642.91
2022-08-07T02:45:59.272Z,100642.25
2022-08-07T02:48:01.621Z,100643.94
2022-08-07T02:50:35.096Z,100646.19
2022-08-07T02:53:10.829Z,100640.97
2022-08-07T02:56:03.327Z,100643.66
2022-08-07T02:58:35.240Z,100643.66
2022-08-07T03:01:06.074Z,100636.97
2022-08-07T03:03:49.754Z,100646.16
2022-08-07T03:06:26.232Z,100645.94
2022-08-07T03:09:02.865Z,100637.31
2022-08-07T03:11:38.633Z,100641.06
2022-08-07T03:14:08.017Z,100642.62
2022-08-07T03:16:36.419Z,100633.97
2022-08-07T03:19:08.439Z,100641.75
2022-08-07T03:21:37.383Z,100639.56
2022-08-07T03:24:20.527Z,100651.09
2022-08-07T03:26:58.739Z,100653.53
2022-08-07T03:29:49.293Z,100656.22
2022-08-07T03:32:33.586Z,100648.19
2022-08-07T03:35:18.160Z,100658.28
2022-08-07T03:37:59.441Z,100659.28
2022-08-07T03:40:30.999Z,100658.19
2022-08-07T03:43:10.051Z,100662.69
2022-08-07T03:45:43.357Z,100655.88
2022-08-07T03:48:16.100Z,100660.87
2022-08-07T03:50:55.968Z,100668.00
2022-08-07T03:53:50.016Z,100659.78
2022-08-07T03:56:32.804Z,100664.81
2022-08-07T03:59:09.813Z,100667.87
2022-08-07T04:01:45.360Z,100674.47
2022-08-07T04:04:17.941Z,100664.06
2022-08-07T04:06:50.922Z,100668.44
2022-08-07T04:09:23.252Z,100673.94
2022-08-07T04:12:25.028Z,100667.72
2022-08-07T04:14:43.676Z,100683.28
2022-08-07T04:17:20.440Z,100671.78
2022-08-07T04:19:51.984Z,100674.13
2022-08-07T04:22:28.932Z,100688.16
2022-08-07T04:25:01.377Z,100684.09
2022-08-07T04:27:35.589Z,100687.25
2022-08-07T04:30:21.047Z,100682.16
2022-08-07T04:32:58.048Z,100677.87
2022-08-07T04:35:27.735Z,100678.44
2022-08-07T04:38:11.577Z,100685.16
2022-08-07T04:40:52.616Z,100688.69
2022-08-07T04:44:12.056Z,100695.03
2022-08-07T04:46:59.318Z,100702.00
2022-08-07T04:49:39.429Z,100691.06
2022-08-07T04:52:46.663Z,100698.50
2022-08-07T04:58:10.148Z,100694.56
2022-08-07T04:59:17.182Z,100692.03
2022-08-07T05:01:51.998Z,100702.03
2022-08-07T05:04:47.084Z,100712.66
2022-08-07T05:07:27.577Z,100718.50
2022-08-07T05:10:11.012Z,100704.91
2022-08-07T05:12:46.330Z,100714.97
2022-08-07T05:15:31.214Z,100721.75
2022-08-07T05:18:32.161Z,100715.34
2022-08-07T05:21:02.179Z,100705.16
2022-08-07T05:23:44.143Z,100709.94
2022-08-07T05:26:23.987Z,100725.53
2022-08-07T05:28:55.619Z,100719.69
2022-08-07T05:31:38.470Z,100720.53
2022-08-07T05:34:10.999Z,100729.13
2022-08-07T05:36:43.540Z,100736.97
2022-08-07T05:40:12.763Z,100741.72
2022-08-07T05:42:05.319Z,100741.16
2022-08-07T05:44:37.858Z,100751.84
2022-08-07T05:47:20.026Z,100761.75
2022-08-07T05:49:50.678Z,100759.47
2022-08-07T05:52:20.057Z,100751.50
2022-08-07T05:54:55.696Z,100751.56
2022-08-07T05:57:26.667Z,100756.81
2022-08-07T06:00:01.281Z,100749.97
2022-08-07T06:02:41.053Z,100745.00
2022-08-07T06:05:15.678Z,100751.31
2022-08-07T06:08:14.073Z,100751.31
2022-08-07T06:10:33.774Z,100752.37
2022-08-07T06:13:03.507Z,100754.31
2022-08-07T06:15:39.329Z,100756.38
2022-08-07T06:18:14.803Z,100761.91
2022-08-07T06:20:50.436Z,100756.72
2022-08-07T06:24:36.776Z,100763.84
2022-08-07T06:26:27.477Z,100764.50
2022-08-07T06:28:59.619Z,100754.38
2022-08-07T06:31:38.829Z,100759.16
2022-08-07T06:34:19.563Z,100761.75
2022-08-07T06:36:48.247Z,100755.25
2022-08-07T06:40:17.538Z,100766.09
2022-08-07T06:42:35.129Z,100763.56
2022-08-07T06:45:18.277Z,100753.69
2022-08-07T06:47:48.051Z,100757.47
2022-08-07T06:50:27.632Z,100745.75
2022-08-07T06:53:00.984Z,100750.62
2022-08-07T06:55:53.513Z,100749.91
2022-08-07T06:58:26.116Z,100766.56
2022-08-07T07:00:58.116Z,100755.34
2022-08-07T07:03:48.787Z,100762.56
2022-08-07T07:06:14.614Z,100763.22
2022-08-07T07:08:51.844Z,100768.22
2022-08-07T07:12:09.168Z,100755.03
2022-08-07T07:14:08.608Z,100756.59
2022-08-07T07:16:49.418Z,100757.19
2022-08-07T07:19:57.837Z,100749.06
2022-08-07T07:22:36.533Z,100767.44
2022-08-07T07:26:30.460Z,100761.22
2022-08-07T07:28:42.337Z,100761.00
2022-08-07T07:31:04.020Z,100762.56
2022-08-07T07:33:36.014Z,100764.69
2022-08-07T07:36:12.775Z,100766.16
2022-08-07T07:38:45.924Z,100770.97
2022-08-07T07:41:16.881Z,100773.63
2022-08-07T07:44:14.683Z,100766.97
2022-08-07T07:46:54.694Z,100765.41
2022-08-07T07:50:33.699Z,100768.75
2022-08-07T07:52:16.770Z,100773.63
2022-08-07T07:54:50.650Z,100762.78
2022-08-07T07:57:50.554Z,100764.34
2022-08-07T08:00:21.072Z,100762.31
2022-08-07T08:03:17.013Z,100776.94
2022-08-07T08:05:58.714Z,100769.09
2022-08-07T08:08:35.555Z,100773.94
2022-08-07T08:11:08.148Z,100775.22
2022-08-07T08:13:52.978Z,100773.94
2022-08-07T08:16:25.168Z,100766.19
2022-08-07T08:18:56.676Z,100761.72
2022-08-07T08:22:00.595Z,100752.19
2022-08-07T08:25:25.103Z,100747.22
2022-08-07T08:27:57.515Z,100759.41
2022-08-07T08:30:37.536Z,100760.81
2022-08-07T08:33:16.878Z,100763.56
2022-08-07T08:35:49.866Z,100765.87
2022-08-07T08:38:29.421Z,100772.50
2022-08-07T08:41:04.167Z,100782.25
2022-08-07T08:43:56.108Z,100772.84
2022-08-07T08:46:39.005Z,100770.88
2022-08-07T08:49:32.841Z,100771.84
2022-08-07T08:52:24.528Z,100761.09
2022-08-07T08:55:07.674Z,100774.66
2022-08-07T08:57:46.810Z,100770.72
2022-08-07T09:00:16.875Z,100777.13
2022-08-07T09:02:55.122Z,100775.22
2022-08-07T09:05:52.164Z,100766.25
2022-08-07T09:09:13.493Z,100755.97
2022-08-07T09:12:20.070Z,100761.78
2022-08-07T09:16:23.871Z,100762.91
2022-08-07T09:18:16.798Z,100763.75
2022-08-07T09:21:13.875Z,100755.25
2022-08-07T09:24:56.071Z,100742.28
2022-08-07T09:27:31.290Z,100737.22
2022-08-07T09:30:09.513Z,100745.37
2022-08-07T09:33:41.347Z,100749.81
2022-08-07T09:36:19.507Z,100745.84
2022-08-07T09:39:27.458Z,100753.38
2022-08-07T09:42:12.833Z,100737.25
2022-08-07T09:46:29.077Z,100740.91
2022-08-07T09:48:55.827Z,100743.69
2022-08-07T09:52:10.191Z,100740.34
2022-08-07T09:54:49.474Z,100735.09
2022-08-07T09:57:27.334Z,100738.56
2022-08-07T10:00:05.216Z,100735.72
2022-08-07T10:04:06.089Z,100729.81
2022-08-07T10:06:27.485Z,100725.78
2022-08-07T10:09:15.362Z,100725.09
2022-08-07T10:12:19.622Z,100723.75
2022-08-07T10:15:15.464Z,100728.22
2022-08-07T10:18:21.148Z,100731.34
2022-08-07T10:20:54.554Z,100718.78
2022-08-07T10:24:06.777Z,100721.84
2022-08-07T10:27:30.132Z,100728.19
2022-08-07T10:30:18.315Z,100720.41
2022-08-07T10:32:53.050Z,100713.03
2022-08-07T10:35:56.710Z,100714.66
2022-08-07T10:38:46.450Z,100714.69
2022-08-07T10:41:46.243Z,100713.91
2022-08-07T10:44:47.172Z,100710.84
2022-08-07T10:47:54.482Z,100701.69
2022-08-07T10:50:25.673Z,100700.50
2022-08-07T10:53:22.725Z,100700.09
2022-08-07T10:56:20.925Z,100695.50
2022-08-07T10:59:21.435Z,100692.41
2022-08-07T11:02:11.745Z,100694.66
2022-08-07T11:04:59.332Z,100689.91
2022-08-07T11:07:59.454Z,100693.03
2022-08-07T11:10:31.996Z,100683.50
2022-08-07T11:13:16.834Z,100679.72
2022-08-07T11:16:08.585Z,100678.53
2022-08-07T11:18:54.557Z,100673.91
2022-08-07T11:21:44.839Z,100670.87
2022-08-07T11:24:21.927Z,100663.84
2022-08-07T11:27:04.781Z,100663.53
2022-08-07T11:29:40.893Z,100658.03
2022-08-07T11:32:25.732Z,100649.59
2022-08-07T11:34:57.447Z,100659.97
2022-08-07T11:37:57.847Z,100642.06
2022-08-07T11:40:41.846Z,100641.59
2022-08-07T11:43:41.335Z,100646.00
2022-08-07T11:46:48.678Z,100636.09
2022-08-07T11:50:30.504Z,100630.13
2022-08-07T11:52:52.001Z,100629.97
2022-08-07T11:56:09.082Z,100629.19
2022-08-07T11:59:01.625Z,100627.75
2022-08-07T12:02:00.526Z,100626.19
2022-08-07T12:05:15.101Z,100617.66
2022-08-07T12:08:03.713Z,100615.44
2022-08-07T12:10:48.747Z,100609.91
2022-08-07T12:14:01.261Z,100606.72
2022-08-07T12:16:36.714Z,100605.53
2022-08-07T12:20:05.413Z,100616.06
2022-08-07T12:22:56.301Z,100606.56
2022-08-07T12:26:03.422Z,100605.28
2022-08-07T12:28:45.084Z,100599.97
2022-08-07T12:32:02.503Z,100615.16
2022-08-07T12:34:29.115Z,100597.06
2022-08-07T12:36:57.784Z,100603.81
2022-08-07T12:39:42.497Z,100607.56
2022-08-07T12:42:15.937Z,100591.25
2022-08-07T12:44:47.713Z,100586.84
2022-08-07T12:47:26.765Z,100588.12
2022-08-07T12:50:39.286Z,100592.06
2022-08-07T12:53:19.059Z,100596.78
2022-08-07T12:56:09.958Z,100589.81
2022-08-07T12:58:42.953Z,100595.06
2022-08-07T13:01:42.553Z,100591.22
2022-08-07T13:04:13.594Z,100593.00
2022-08-07T13:07:01.034Z,100595.53
2022-08-07T13:10:28.678Z,100579.56
2022-08-07T13:13:08.530Z,100585.75
2022-08-07T13:15:59.766Z,100587.56
2022-08-07T13:18:50.575Z,100584.78
2022-08-07T13:21:51.279Z,100580.91
2022-08-07T13:24:30.853Z,100582.97
2022-08-07T13:27:13.794Z,100581.47
2022-08-07T13:30:06.755Z,100582.19
2022-08-07T13:34:11.680Z,100588.25
2022-08-07T13:36:09.392Z,100584.66
2022-08-07T13:38:58.857Z,100592.34
2022-08-07T13:41:48.617Z,100583.56
2022-08-07T13:44:26.131Z,100580.88
2022-08-07T13:46:59.342Z,100583.13
2022-08-07T13:50:32.843Z,100580.16
2022-08-07T13:52:33.526Z,100578.66
2022-08-07T13:55:19.548Z,100578.59
2022-08-07T13:58:31.685Z,100577.31
2022-08-07T14:01:09.019Z,100569.84
2022-08-07T14:04:05.663Z,100572.41
2022-08-07T14:06:34.440Z,100575.97
2022-08-07T14:09:05.094Z,100574.84
2022-08-07T14:11:53.969Z,100571.81
2022-08-07T14:14:58.989Z,100571.84
2022-08-07T14:18:13.003Z,100568.66
2022-08-07T14:22:40.876Z,100578.75
2022-08-07T14:23:58.742Z,100580.34
2022-08-07T14:26:28.118Z,100577.28
2022-08-07T14:29:02.946Z,100583.38
2022-08-07T14:31:42.388Z,100571.50
2022-08-07T14:34:29.193Z,100579.22
2022-08-07T14:37:01.727Z,100573.81
2022-08-07T14:40:16.079Z,100578.03
2022-08-07T14:42:31.300Z,100570.00
2022-08-07T14:45:22.315Z,100570.41
2022-08-07T14:47:53.015Z,100577.66
2022-08-07T14:50:28.884Z,100573.84
2022-08-07T14:55:56.094Z,100576.53
2022-08-07T14:58:31.378Z,100572.69
2022-08-07T15:01:21.337Z,100581.12
2022-08-07T15:06:40.398Z,100581.12
2022-08-07T15:09:58.818Z,100587.66
2022-08-07T15:12:26.034Z,100584.97
2022-08-07T15:17:59.733Z,100591.88
2022-08-07T15:20:55.087Z,100581.12
2022-08-07T15:25:13.485Z,100592.25
2022-08-07T15:26:22.630Z,100589.19
2022-08-07T15:31:57.939Z,100589.97
2022-08-07T15:38:04.604Z,100600.22
2022-08-07T15:46:31.833Z,100596.00
2022-08-07T15:49:13.122Z,100591.84
2022-08-07T15:54:33.944Z,100588.38
2022-08-07T15:57:10.607Z,100591.03
2022-08-07T15:59:59.219Z,100586.44
2022-08-07T16:02:31.883Z,100584.47
2022-08-07T16:05:15.308Z,100597.13
2022-08-07T16:08:31.235Z,100588.31
2022-08-07T16:10:38.538Z,100591.25
2022-08-07T16:13:58.400Z,100590.09
2022-08-07T16:16:49.860Z,100594.75
2022-08-07T16:19:58.910Z,100597.09
2022-08-07T16:23:12.060Z,100594.03
2022-08-07T16:26:02.280Z,100596.87
2022-08-07T16:30:07.141Z,100596.22
2022-08-07T16:32:33.008Z,100591.34
2022-08-07T16:35:58.694Z,100596.91
2022-08-07T16:38:11.385Z,100593.00
2022-08-07T16:41:17.300Z,100601.25
2022-08-07T16:44:03.760Z,100601.00
2022-08-07T16:47:12.014Z,100589.25
2022-08-07T16:50:20.626Z,100589.19
2022-08-07T16:53:14.809Z,100590.13
2022-08-07T16:55:50.541Z,100598.47
2022-08-07T16:59:14.301Z,100593.41
2022-08-07T17:02:09.049Z,100604.47
2022-08-07T17:06:19.412Z,100608.88
2022-08-07T17:08:08.979Z,100607.34
2022-08-07T17:10:55.678Z,100609.66
2022-08-07T17:14:19.568Z,100618.47
2022-08-07T17:17:01.312Z,100614.94
2022-08-07T17:20:02.457Z,100614.50
2022-08-07T17:22:45.871Z,100617.09
2022-08-07T17:25:19.249Z,100610.19
2022-08-07T17:28:09.123Z,100609.31
2022-08-07T17:30:57.981Z,100609.25
2022-08-07T17:34:09.586Z,100612.44
2022-08-07T17:36:26.820Z,100615.34
2022-08-07T17:39:10.104Z,100602.34
2022-08-07T17:42:02.616Z,100610.72
2022-08-07T17:44:55.632Z,100611.84
2022-08-07T17:47:42.273Z,100608.25
2022-08-07T17:50:30.445Z,100610.19
2022-08-07T17:53:59.565Z,100615.12
2022-08-07T17:56:06.336Z,100608.44
2022-08-07T17:58:50.596Z,100618.34
2022-08-07T18:01:39.197Z,100621.69
2022-08-07T18:04:35.218Z,100627.75
2022-08-07T18:07:21.026Z,100638.09
2022-08-07T18:10:32.790Z,100632.81
2022-08-07T18:13:00.771Z,100638.19
2022-08-07T18:15:37.362Z,100639.69
2022-08-07T18:18:47.270Z,100641.03
2022-08-07T18:21:28.759Z,100643.75
2022-08-07T18:24:33.861Z,100639.38
2022-08-07T18:27:17.519Z,100643.56
2022-08-07T18:30:32.456Z,100643.87
2022-08-07T18:33:36.803Z,100651.50
2022-08-07T18:36:32.835Z,100658.16
2022-08-07T18:40:07.210Z,100653.06
2022-08-07T18:42:28.591Z,100656.81
2022-08-07T18:45:44.772Z,100655.94
2022-08-07T18:50:05.462Z,100667.75
2022-08-07T18:50:59.625Z,100674.84
2022-08-07T18:53:46.546Z,100680.94
2022-08-07T18:56:58.334Z,100678.47
2022-08-07T19:00:32.709Z,100676.53
2022-08-07T19:03:37.509Z,100674.78
2022-08-07T19:06:16.544Z,100679.38
2022-08-07T19:08:58.698Z,100676.81
2022-08-07T19:12:04.651Z,100688.53
2022-08-07T19:14:55.910Z,100681.31
2022-08-07T19:18:01.209Z,100682.84
2022-08-07T19:21:09.109Z,100683.81
2022-08-07T19:23:59.111Z,100689.31
2022-08-07T19:26:29.173Z,100684.19
2022-08-07T19:30:58.780Z,100690.91
2022-08-07T19:32:07.935Z,100683.12
2022-08-07T19:34:41.985Z,100691.53
2022-08-07T19:37:19.278Z,100692.53
2022-08-07T19:40:02.111Z,100693.03
2022-08-07T19:42:39.889Z,100698.16
2022-08-07T19:46:04.698Z,100694.44
2022-08-07T19:48:18.976Z,100697.44
2022-08-07T19:50:54.540Z,100702.94
2022-08-07T19:54:34.718Z,100698.09
2022-08-07T19:57:56.718Z,100694.34
2022-08-07T19:59:12.310Z,100688.09
2022-08-07T20:01:55.844Z,100690.84
2022-08-07T20:04:31.379Z,100698.78
2022-08-07T20:07:00.796Z,100701.87
2022-08-07T20:10:37.333Z,100710.56
2022-08-07T20:12:35.766Z,100705.56
2022-08-07T20:15:15.504Z,100713.31
2022-08-07T20:18:01.637Z,100708.66
2022-08-07T20:20:33.945Z,100706.97
2022-08-07T20:23:23.264Z,100711.00
2022-08-07T20:26:04.512Z,100710.47
2022-08-07T20:28:41.264Z,100710.81
2022-08-07T20:31:21.353Z,100711.34
2022-08-07T20:33:56.654Z,100709.97
2022-08-07T20:36:29.736Z,100715.09
2022-08-07T20:39:00.779Z,100714.34
2022-08-07T20:41:37.951Z,100711.34
2022-08-07T20:44:12.825Z,100707.22
2022-08-07T20:46:45.247Z,100719.00
2022-08-07T20:50:00.920Z,100714.22
2022-08-07T20:52:16.755Z,100719.44
2022-08-07T20:54:54.232Z,100717.94
2022-08-07T20:57:29.793Z,100726.75
2022-08-07T21:00:09.428Z,100735.50
2022-08-07T21:02:58.131Z,100731.28
2022-08-07T21:05:52.457Z,100737.69
2022-08-07T21:08:37.771Z,100743.56
2022-08-07T21:11:18.329Z,100733.84
2022-08-07T21:14:16.148Z,100734.19
2022-08-07T21:16:55.887Z,100740.03
2022-08-07T21:19:32.340Z,100749.31
2022-08-07T21:22:16.361Z,100748.19
2022-08-07T21:25:12.681Z,100747.62
2022-08-07T21:28:02.135Z,100745.91
2022-08-07T21:30:49.466Z,100745.22
2022-08-07T21:33:21.976Z,100751.91
2022-08-07T21:36:11.916Z,100749.00
2022-08-07T21:39:45.398Z,100743.66
2022-08-07T21:42:42.651Z,100745.81
2022-08-07T21:46:09.456Z,100745.34
2022-08-07T21:48:57.755Z,100758.41
2022-08-07T21:51:28.141Z,100756.22
2022-08-07T21:54:06.446Z,100754.94
2022-08-07T21:56:50.609Z,100749.75
2022-08-07T22:00:04.162Z,100744.16
2022-08-07T22:03:05.786Z,100742.97
2022-08-07T22:05:50.136Z,100734.19
2022-08-07T22:08:24.666Z,100739.69
2022-08-07T22:10:59.629Z,100741.63
2022-08-07T22:13:51.318Z,100735.31
2022-08-07T22:16:43.303Z,100739.34
2022-08-07T22:19:38.482Z,100740.75
2022-08-07T22:22:28.558Z,100740.50
2022-08-07T22:25:08.358Z,100749.53
2022-08-07T22:28:20.049Z,100749.72
2022-08-07T22:30:32.040Z,100740.34
2022-08-07T22:33:09.338Z,100752.22
2022-08-07T22:35:48.670Z,100736.03
2022-08-07T22:38:25.984Z,100742.94
2022-08-07T22:41:03.485Z,100741.72
2022-08-07T22:43:51.898Z,100741.44
2022-08-07T22:46:46.823Z,100746.03
2022-08-07T22:49:54.322Z,100744.47
2022-08-07T22:52:51.884Z,100744.84
2022-08-07T22:55:30.967Z,100744.16
2022-08-07T22:58:17.275Z,100741.06
2022-08-07T23:01:09.398Z,100733.97
2022-08-07T23:03:59.050Z,100739.97
2022-08-07T23:06:50.012Z,100734.56
2022-08-07T23:10:04.609Z,100739.75
2022-08-07T23:12:53.453Z,100745.31
2022-08-07T23:16:05.459Z,100740.09
2022-08-07T23:18:19.305Z,100738.19
2022-08-07T23:21:20.956Z,100737.69
2022-08-07T23:24:05.291Z,100749.69
2022-08-07T23:27:12.080Z,100737.31
2022-08-07T23:30:37.137Z,100740.88
2022-08-07T23:34:33.967Z,100747.94
2022-08-07T23:36:54.664Z,100736.53
2022-08-07T23:39:55.610Z,100740.44
2022-08-07T23:42:34.256Z,100746.97
2022-08-07T23:45:15.514Z,100739.31
2022-08-07T23:48:19.889Z,100742.19
2022-08-07T23:51:12.418Z,100739.50
2022-08-07T23:54:35.824Z,100740.66
2022-08-07T23:57:18.482Z,100741.97
